Logo AVAMET
Benvolgut visitant, si us plau, ingressa Recuperar contrasenya
AVAMET paisatges

Redovà

Dades diàries. Acumulats / Últims 30 dies disponibles

Data Temperatura (°C) Humitat rel. (%) Pressió rel. (hPa) Vent (km/h) Precipitació
Mínima Mitjana Màxima Amplitud
tèrmica
Mínima Mitjana Màxima Mínima Mitjana Màxima Predom. Mitjana Ràfega
màxima
Total
(mm)
Índex-n
Mínima Mitjana Màxima Mínima Mitjana Màxima n
0 a 1
P0 max
mm 5'
Dades mensuals acumulades fins l'últim dia disponible
02/2020 7,3 10,5 13,6 15,1 16,6 21,8 27,4 20,1 27 75 96 1.022 1.028 1.034   1,9 56,3 2,0
Dades anuals acumulades fins l'últim dia disponible
2020 2,6 8,3 14,3 12,8 10,3 18,9 27,4 24,8 27 75 96 1.013 1.027 1.036   1,8 56,3 65,6
Últims 30 dies disponibles
18-02-2020 13,6     14,6     18,3 4,7 63 84 91 1.029 1.032 1.034 ESE 5,3 37,0 1,4
17-02-2020 9,1     14,3     26,8 17,7 47 81 96 1.025 1.028 1.028 SE 1,1 16,1 0,2
16-02-2020 8,8     13,6     22,2 13,4 60 85 96 1.027 1.029 1.030 SE 0,9 12,9 0,2
15-02-2020 7,8     13,8     21,4 13,6 57 80 91 1.027 1.028 1.030 SSE 1,5 17,7 0,0
14-02-2020 11,1     15,5     22,5 11,4 48 70 89 1.025 1.026 1.028 SSO 1,9 22,5 0,0
13-02-2020 10,6     15,8     22,0 11,4 52 75 92 1.023 1.025 1.026 S 1,3 17,7 0,0
12-02-2020 11,4     13,9     20,1 8,7 71 86 95 1.024 1.025 1.026 E 1,3 24,1 0,0
11-02-2020 13,0     17,7     -13,0 45 70 87 1.022 1.026 1.029 SSO 0,9 12,9 0,0
10-02-2020 8,7     15,3     23,8 15,1 44 71 91 1.029 1.032 1.034 S 1,6 19,3 0,2
09-02-2020 11,1     14,8     20,6 9,5 53 76 91 1.028 1.031 1.034 SSO 1,7 17,7 0,0
08-02-2020 7,4     13,1     20,4 13,0 50 77 92 1.025 1.027 1.029 E 0,5 12,9 0,0
07-02-2020 7,8     11,6     17,2 9,4 61 79 89 1.025 1.026 1.027 SSO 0,9 16,1 0,0
06-02-2020 7,3     11,6     16,6 9,3 58 81 94 1.027 1.029 1.031 ESE 1,6 19,3 0,0
05-02-2020 11,3     14,5     18,1 6,8 61 74 87 1.028 1.030 1.032 ENE 5,5 56,3 0,0
04-02-2020 11,6     18,8     27,4 15,8 27 57 85 1.024 1.027 1.030 SSE 3,0 24,1 0,0
03-02-2020 12,7     17,2     26,0 13,3 41 71 85 1.028 1.030 1.032 S 0,9 14,5 0,0
02-02-2020 13,6     17,8     24,3 10,7 52 69 83 1.028 1.029 1.032 S 1,4 16,1 0,0
01-02-2020 11,8     17,3     23,7 11,9 52 69 84 1.024 1.025 1.029 SSO 3,2 35,4 0,0
31-01-2020 14,3     18,3     22,4 8,1 49 60 76 1.023 1.024 1.026 OSO 6,4 33,8 0,0
30-01-2020 11,2     16,5     22,9 11,7 38 65 84 1.023 1.024 1.026 SO 1,6 19,3 0,0
29-01-2020 11,2     16,9     21,2 10,0 54 67 83 1.023 1.025 1.027 S 2,6 20,9 0,0
28-01-2020 8,2     14,4     22,5 14,3 47 67 82 1.023 1.025 1.026 SSE 2,3 25,7 0,0
27-01-2020 6,3     12,2     17,7 11,4 46 67 84 1.024 1.026 1.028 SSO 1,5 17,7 0,0
26-01-2020 7,7     12,1     17,5 9,8 52 76 94 1.021 1.023 1.027 SO 1,8 30,6 0,0
25-01-2020 10,6     12,6     15,6 5,0 75 86 92 1.019 1.020 1.022 SSE 0,2 11,3 0,0
24-01-2020 10,8     13,4     15,4 4,6 71 79 87 1.022 1.023 1.024 SE 3,6 29,0 0,0
23-01-2020 7,6     11,5     15,7 8,1 74 85 92 1.021 1.022 1.023 SE 2,6 27,4 0,0
22-01-2020 7,9     10,5     16,7 8,8 74 88 96 1.018 1.019 1.021 SSE 0,5 22,5 0,0
21-01-2020 8,2     10,0     12,8 4,6 82 89 94 1.013 1.015 1.019 SO 2,7 38,6 38,6 0,64 4,50
20-01-2020 7,2     8,7     10,3 3,1 64 82 94 1.015 1.018 1.019 SSE 3,0 40,2 20,0 0,74 3,10
Últims 13 mesos disponibles
01/2020 2,6 7,1 14,3 11,6 10,3 17,2 22,9 20,3 60 75 89 1.015 1.027 1.034 SSE 1,7 40,2 63,6
12/2019 5,4 10,5 17,9 14,5 13,0 18,9 25,2 19,8 45 69 87 1.008 1.021 1.034 SO 2,6 53,1 43,4
11/2019 6,8 12,1 20,0 16,1 15,2 20,4 28,4 21,6 40 58 91 1.002 1.013 1.021 SSO 3,7 51,5 10,8
10/2019 11,2 16,2 22,1 21,3 17,4 26,6 34,9 23,7 45 68 90 1.010 1.018 1.024 SSO 2,0 33,8 19,2
09/2019 16,3 20,7 24,2 24,5 22,9 29,4 35,4 19,1 48 74 88 1.012 1.019 1.024 SSE 2,9 51,5 307,6
08/2019 19,8 22,7 25,8 27,3 29,5 33,0 42,7 22,9 36 67 80 1.012 1.017 1.021 ESE 2,4 45,1 32,8
07/2019 21,0 23,1 26,5 28,3 29,6 33,7 38,9 17,9 36 60 73 1.008 1.015 1.021 ESE 4,1 41,8 0,2
06/2019 13,9 18,6 23,2 24,4 24,7 30,2 36,3 22,4 37 59 73 1.010 1.016 1.024 SSE 3,8 49,9 0,8
05/2019 11,6 15,4 21,2 20,6 21,6 26,3 32,7 21,1 46 64 75 1.008 1.017 1.026 SE 3,6 48,3 3,4
04/2019 8,3 12,1 15,8 16,3 14,6 21,7 29,9 21,6 46 67 90 1.002 1.015 1.027 S 2,7 57,9 80,4
03/2019 5,4 9,2 13,2 14,9 13,1 21,4 28,7 23,3 40 62 90 1.013 1.024 1.032 SSE 2,2 46,7 18,6
02/2019 4,9 7,8 11,9 13,1 14,2 19,9 28,3 23,4 37 63 78 999 1.027 1.034 SSE 2,3 51,5 0,0
01/2019 1,3 6,7 13,0 11,7 13,4 17,9 23,2 21,9 40 60 81 1.007 1.021 1.033 SSO 1,8 40,2 2,6
Tots els anys disponibles
2019 1,3 14,5 26,5 19,3 13,0 24,8 42,7 41,4 36 64 91 999 1.019 1.034 SSE 2,8 57,9 519,8
Temperatura (°C)
Humitat relativa (%)
Velocitat del vent i ràfega màxima (km/h)
Direcció del vent (°)
Pressió (hPa)
Precipitació (mm)
Nota sobre les dades: s'avisa a l'usuari de la provisionalitat i no oficialitat d'aquestes dades
Logo AVAMET blanc
Web allotjada a Sollutia
Llicència de Creative CommonsLa web d'AVAMET i els seus continguts estan subjectes a una llicència de
Reconeixement - No Comercial - Compartir igual
Últimes estacions:  Sorita (AVAMET), Gorga (Soci), Massalavés - Ajuntament (Soci/Inforatge), Albuixech - Polígon (Inforatge), La Torre d'en Besora (Ajuntament soci), Xixona - Sogorb Barranc Blanc (Soci), Pedreguer - Patronat (Soci) - - -